sensor_id;sensor_type;location;lat;lon;timestamp;P1;durP1;ratioP1;P2;durP2;ratioP2
22786;SDS011;63134;52.020;4.714;2023-08-24T00:00:40;0.70;;;0.70;;
22786;SDS011;63134;52.020;4.714;2023-08-24T00:03:26;0.80;;;0.80;;
22786;SDS011;63134;52.020;4.714;2023-08-24T00:06:15;1.33;;;1.02;;
22786;SDS011;63134;52.020;4.714;2023-08-24T00:09:01;1.00;;;0.70;;
22786;SDS011;63134;52.020;4.714;2023-08-24T00:11:49;0.82;;;0.75;;
22786;SDS011;63134;52.020;4.714;2023-08-24T00:14:35;0.93;;;0.70;;
22786;SDS011;63134;52.020;4.714;2023-08-24T00:17:20;0.93;;;0.80;;
22786;SDS011;63134;52.020;4.714;2023-08-24T00:20:08;1.23;;;0.90;;
22786;SDS011;63134;52.020;4.714;2023-08-24T00:22:56;1.00;;;0.88;;
22786;SDS011;63134;52.020;4.714;2023-08-24T00:25:42;1.45;;;0.98;;
22786;SDS011;63134;52.020;4.714;2023-08-24T00:28:29;1.13;;;1.00;;
22786;SDS011;63134;52.020;4.714;2023-08-24T00:31:20;0.73;;;0.73;;
22786;SDS011;63134;52.020;4.714;2023-08-24T00:34:06;1.10;;;1.00;;
22786;SDS011;63134;52.020;4.714;2023-08-24T00:36:53;0.75;;;0.75;;
22786;SDS011;63134;52.020;4.714;2023-08-24T00:39:39;0.93;;;0.70;;
22786;SDS011;63134;52.020;4.714;2023-08-24T00:42:41;0.70;;;0.70;;
22786;SDS011;63134;52.020;4.714;2023-08-24T00:45:37;0.93;;;0.85;;
22786;SDS011;63134;52.020;4.714;2023-08-24T00:48:23;0.80;;;0.80;;
22786;SDS011;63134;52.020;4.714;2023-08-24T00:51:12;0.80;;;0.70;;
22786;SDS011;63134;52.020;4.714;2023-08-24T00:53:58;0.50;;;0.50;;
22786;SDS011;63134;52.020;4.714;2023-08-24T00:56:46;0.70;;;0.70;;
22786;SDS011;63134;52.020;4.714;2023-08-24T00:59:35;0.73;;;0.70;;
22786;SDS011;63134;52.020;4.714;2023-08-24T01:02:22;0.80;;;0.70;;
22786;SDS011;63134;52.020;4.714;2023-08-24T01:05:10;0.90;;;0.90;;
22786;SDS011;63134;52.020;4.714;2023-08-24T01:07:57;0.82;;;0.65;;
22786;SDS011;63134;52.020;4.714;2023-08-24T01:10:48;0.70;;;0.70;;
22786;SDS011;63134;52.020;4.714;2023-08-24T01:16:48;0.70;;;0.70;;
22786;SDS011;63134;52.020;4.714;2023-08-24T01:19:43;0.60;;;0.60;;
22786;SDS011;63134;52.020;4.714;2023-08-24T01:22:34;0.73;;;0.60;;
22786;SDS011;63134;52.020;4.714;2023-08-24T01:25:32;0.60;;;0.60;;
22786;SDS011;63134;52.020;4.714;2023-08-24T01:28:24;1.35;;;0.90;;
22786;SDS011;63134;52.020;4.714;2023-08-24T01:31:12;0.80;;;0.80;;
22786;SDS011;63134;52.020;4.714;2023-08-24T01:33:59;1.00;;;0.88;;
22786;SDS011;63134;52.020;4.714;2023-08-24T01:36:49;0.80;;;0.80;;
22786;SDS011;63134;52.020;4.714;2023-08-24T01:39:50;0.60;;;0.60;;
22786;SDS011;63134;52.020;4.714;2023-08-24T01:42:53;0.50;;;0.50;;
22786;SDS011;63134;52.020;4.714;2023-08-24T01:45:42;0.70;;;0.70;;
22786;SDS011;63134;52.020;4.714;2023-08-24T01:48:32;0.80;;;0.80;;
22786;SDS011;63134;52.020;4.714;2023-08-24T01:51:18;1.45;;;1.08;;
22786;SDS011;63134;52.020;4.714;2023-08-24T01:54:05;1.30;;;1.08;;
22786;SDS011;63134;52.020;4.714;2023-08-24T01:57:02;1.20;;;1.02;;
22786;SDS011;63134;52.020;4.714;2023-08-24T01:59:52;1.00;;;1.00;;
22786;SDS011;63134;52.020;4.714;2023-08-24T02:02:37;1.30;;;1.20;;
22786;SDS011;63134;52.020;4.714;2023-08-24T02:05:26;1.55;;;1.40;;
22786;SDS011;63134;52.020;4.714;2023-08-24T02:08:13;1.40;;;1.30;;
22786;SDS011;63134;52.020;4.714;2023-08-24T02:10:59;1.33;;;1.23;;
22786;SDS011;63134;52.020;4.714;2023-08-24T02:13:45;2.00;;;1.90;;
22786;SDS011;63134;52.020;4.714;2023-08-24T02:16:31;2.83;;;2.47;;
22786;SDS011;63134;52.020;4.714;2023-08-24T02:19:18;2.42;;;1.90;;
22786;SDS011;63134;52.020;4.714;2023-08-24T02:22:04;1.88;;;1.70;;
22786;SDS011;63134;52.020;4.714;2023-08-24T02:24:51;1.63;;;1.52;;
22786;SDS011;63134;52.020;4.714;2023-08-24T02:27:37;1.52;;;1.42;;
22786;SDS011;63134;52.020;4.714;2023-08-24T02:30:25;1.40;;;1.30;;
22786;SDS011;63134;52.020;4.714;2023-08-24T02:33:11;1.45;;;1.20;;
22786;SDS011;63134;52.020;4.714;2023-08-24T02:35:57;1.60;;;1.50;;
22786;SDS011;63134;52.020;4.714;2023-08-24T02:38:42;1.55;;;1.35;;
22786;SDS011;63134;52.020;4.714;2023-08-24T02:41:28;1.73;;;1.63;;
22786;SDS011;63134;52.020;4.714;2023-08-24T02:44:13;1.95;;;1.80;;
22786;SDS011;63134;52.020;4.714;2023-08-24T02:46:59;1.70;;;1.60;;
22786;SDS011;63134;52.020;4.714;2023-08-24T02:49:45;1.70;;;1.60;;
22786;SDS011;63134;52.020;4.714;2023-08-24T02:52:30;1.40;;;1.30;;
22786;SDS011;63134;52.020;4.714;2023-08-24T02:55:18;0.93;;;0.93;;
22786;SDS011;63134;52.020;4.714;2023-08-24T02:58:04;0.93;;;0.85;;
22786;SDS011;63134;52.020;4.714;2023-08-24T03:00:50;1.23;;;1.08;;
22786;SDS011;63134;52.020;4.714;2023-08-24T03:03:37;1.50;;;1.40;;
22786;SDS011;63134;52.020;4.714;2023-08-24T03:06:23;1.80;;;1.70;;
22786;SDS011;63134;52.020;4.714;2023-08-24T03:09:09;1.73;;;1.60;;
22786;SDS011;63134;52.020;4.714;2023-08-24T03:11:55;1.52;;;1.40;;
22786;SDS011;63134;52.020;4.714;2023-08-24T03:14:40;0.88;;;0.88;;
22786;SDS011;63134;52.020;4.714;2023-08-24T03:17:26;1.65;;;1.42;;
22786;SDS011;63134;52.020;4.714;2023-08-24T03:20:15;1.30;;;1.20;;
22786;SDS011;63134;52.020;4.714;2023-08-24T03:23:01;0.90;;;0.90;;
22786;SDS011;63134;52.020;4.714;2023-08-24T03:25:49;0.82;;;0.82;;
22786;SDS011;63134;52.020;4.714;2023-08-24T03:28:34;0.77;;;0.77;;
22786;SDS011;63134;52.020;4.714;2023-08-24T03:31:20;0.80;;;0.80;;
22786;SDS011;63134;52.020;4.714;2023-08-24T03:34:06;0.77;;;0.77;;
22786;SDS011;63134;52.020;4.714;2023-08-24T03:36:52;1.10;;;1.00;;
22786;SDS011;63134;52.020;4.714;2023-08-24T03:39:38;1.40;;;1.30;;
22786;SDS011;63134;52.020;4.714;2023-08-24T03:42:24;1.00;;;1.00;;
22786;SDS011;63134;52.020;4.714;2023-08-24T03:45:09;1.25;;;0.90;;
22786;SDS011;63134;52.020;4.714;2023-08-24T03:47:55;0.80;;;0.80;;
22786;SDS011;63134;52.020;4.714;2023-08-24T03:50:43;0.90;;;0.77;;
22786;SDS011;63134;52.020;4.714;2023-08-24T03:53:31;1.25;;;1.15;;
22786;SDS011;63134;52.020;4.714;2023-08-24T03:56:17;1.60;;;1.50;;
22786;SDS011;63134;52.020;4.714;2023-08-24T03:59:05;1.45;;;1.35;;
22786;SDS011;63134;52.020;4.714;2023-08-24T04:01:51;1.27;;;1.10;;
22786;SDS011;63134;52.020;4.714;2023-08-24T04:04:36;1.30;;;1.20;;
22786;SDS011;63134;52.020;4.714;2023-08-24T04:07:22;1.52;;;1.42;;
22786;SDS011;63134;52.020;4.714;2023-08-24T04:10:08;1.55;;;1.40;;
22786;SDS011;63134;52.020;4.714;2023-08-24T04:12:55;1.23;;;1.13;;
22786;SDS011;63134;52.020;4.714;2023-08-24T04:15:40;1.50;;;1.40;;
22786;SDS011;63134;52.020;4.714;2023-08-24T04:18:29;2.33;;;1.90;;
22786;SDS011;63134;52.020;4.714;2023-08-24T04:21:14;2.03;;;1.90;;
22786;SDS011;63134;52.020;4.714;2023-08-24T04:24:03;2.17;;;2.03;;
22786;SDS011;63134;52.020;4.714;2023-08-24T04:26:48;2.45;;;2.20;;
22786;SDS011;63134;52.020;4.714;2023-08-24T04:29:34;1.90;;;1.80;;
22786;SDS011;63134;52.020;4.714;2023-08-24T04:32:19;1.83;;;1.67;;
22786;SDS011;63134;52.020;4.714;2023-08-24T04:35:11;1.30;;;1.20;;
22786;SDS011;63134;52.020;4.714;2023-08-24T04:38:01;1.30;;;1.10;;
22786;SDS011;63134;52.020;4.714;2023-08-24T04:40:54;1.00;;;1.00;;
22786;SDS011;63134;52.020;4.714;2023-08-24T04:43:41;0.80;;;0.80;;
22786;SDS011;63134;52.020;4.714;2023-08-24T04:46:26;1.33;;;1.00;;
22786;SDS011;63134;52.020;4.714;2023-08-24T04:49:15;0.95;;;0.90;;
22786;SDS011;63134;52.020;4.714;2023-08-24T04:52:02;1.27;;;0.90;;
22786;SDS011;63134;52.020;4.714;2023-08-24T04:54:49;0.93;;;0.90;;
22786;SDS011;63134;52.020;4.714;2023-08-24T04:57:36;1.08;;;1.00;;
22786;SDS011;63134;52.020;4.714;2023-08-24T05:00:24;0.75;;;0.75;;
22786;SDS011;63134;52.020;4.714;2023-08-24T05:03:12;0.80;;;0.80;;
22786;SDS011;63134;52.020;4.714;2023-08-24T05:05:58;1.27;;;1.10;;
22786;SDS011;63134;52.020;4.714;2023-08-24T05:08:45;1.45;;;1.35;;
22786;SDS011;63134;52.020;4.714;2023-08-24T05:11:33;1.55;;;1.45;;
22786;SDS011;63134;52.020;4.714;2023-08-24T05:14:19;1.98;;;1.52;;
22786;SDS011;63134;52.020;4.714;2023-08-24T05:17:05;2.00;;;1.50;;
22786;SDS011;63134;52.020;4.714;2023-08-24T05:19:51;3.38;;;1.70;;
22786;SDS011;63134;52.020;4.714;2023-08-24T05:22:38;1.60;;;1.50;;
22786;SDS011;63134;52.020;4.714;2023-08-24T05:25:25;1.75;;;1.65;;
22786;SDS011;63134;52.020;4.714;2023-08-24T05:28:11;1.58;;;1.48;;
22786;SDS011;63134;52.020;4.714;2023-08-24T05:30:57;1.73;;;1.63;;
22786;SDS011;63134;52.020;4.714;2023-08-24T05:33:45;2.97;;;1.75;;
22786;SDS011;63134;52.020;4.714;2023-08-24T05:36:31;2.35;;;1.58;;
22786;SDS011;63134;52.020;4.714;2023-08-24T05:39:16;1.65;;;1.55;;
22786;SDS011;63134;52.020;4.714;2023-08-24T05:42:05;1.52;;;1.42;;
22786;SDS011;63134;52.020;4.714;2023-08-24T05:44:51;1.40;;;1.30;;
22786;SDS011;63134;52.020;4.714;2023-08-24T05:47:36;1.30;;;1.20;;
22786;SDS011;63134;52.020;4.714;2023-08-24T05:50:22;1.48;;;1.38;;
22786;SDS011;63134;52.020;4.714;2023-08-24T05:53:18;1.48;;;1.38;;
22786;SDS011;63134;52.020;4.714;2023-08-24T05:56:04;1.67;;;1.58;;
22786;SDS011;63134;52.020;4.714;2023-08-24T05:58:50;1.45;;;1.35;;
22786;SDS011;63134;52.020;4.714;2023-08-24T06:01:36;1.75;;;1.65;;
22786;SDS011;63134;52.020;4.714;2023-08-24T06:04:23;1.80;;;1.70;;
22786;SDS011;63134;52.020;4.714;2023-08-24T06:10:15;2.13;;;1.80;;
22786;SDS011;63134;52.020;4.714;2023-08-24T06:13:03;2.35;;;2.15;;
22786;SDS011;63134;52.020;4.714;2023-08-24T06:15:51;2.45;;;2.25;;
22786;SDS011;63134;52.020;4.714;2023-08-24T06:18:40;2.42;;;2.22;;
22786;SDS011;63134;52.020;4.714;2023-08-24T06:21:26;2.00;;;1.85;;
22786;SDS011;63134;52.020;4.714;2023-08-24T06:24:11;2.38;;;2.17;;
22786;SDS011;63134;52.020;4.714;2023-08-24T06:26:57;2.40;;;2.17;;
22786;SDS011;63134;52.020;4.714;2023-08-24T06:29:43;2.30;;;2.10;;
22786;SDS011;63134;52.020;4.714;2023-08-24T06:32:29;4.55;;;3.67;;
22786;SDS011;63134;52.020;4.714;2023-08-24T06:35:15;2.97;;;2.78;;
22786;SDS011;63134;52.020;4.714;2023-08-24T06:38:01;2.45;;;2.25;;
22786;SDS011;63134;52.020;4.714;2023-08-24T06:40:48;4.05;;;3.35;;
22786;SDS011;63134;52.020;4.714;2023-08-24T06:43:35;3.63;;;2.90;;
22786;SDS011;63134;52.020;4.714;2023-08-24T06:46:23;3.13;;;2.80;;
22786;SDS011;63134;52.020;4.714;2023-08-24T06:49:14;3.67;;;2.47;;
22786;SDS011;63134;52.020;4.714;2023-08-24T06:52:00;3.42;;;2.67;;
22786;SDS011;63134;52.020;4.714;2023-08-24T06:54:46;3.15;;;2.67;;
22786;SDS011;63134;52.020;4.714;2023-08-24T06:57:33;2.75;;;2.45;;
22786;SDS011;63134;52.020;4.714;2023-08-24T07:00:19;3.13;;;2.83;;
22786;SDS011;63134;52.020;4.714;2023-08-24T07:03:09;2.65;;;2.45;;
22786;SDS011;63134;52.020;4.714;2023-08-24T07:05:55;3.40;;;2.40;;
22786;SDS011;63134;52.020;4.714;2023-08-24T07:08:42;2.17;;;1.98;;
22786;SDS011;63134;52.020;4.714;2023-08-24T07:11:30;2.08;;;1.88;;
22786;SDS011;63134;52.020;4.714;2023-08-24T07:14:15;2.03;;;1.83;;
22786;SDS011;63134;52.020;4.714;2023-08-24T07:17:01;2.50;;;2.30;;
22786;SDS011;63134;52.020;4.714;2023-08-24T07:19:50;2.40;;;2.20;;
22786;SDS011;63134;52.020;4.714;2023-08-24T07:22:38;4.38;;;3.35;;
22786;SDS011;63134;52.020;4.714;2023-08-24T07:25:24;3.13;;;2.80;;
22786;SDS011;63134;52.020;4.714;2023-08-24T07:28:15;2.63;;;2.25;;
22786;SDS011;63134;52.020;4.714;2023-08-24T07:31:11;1.65;;;1.50;;
22786;SDS011;63134;52.020;4.714;2023-08-24T07:33:58;2.13;;;1.90;;
22786;SDS011;63134;52.020;4.714;2023-08-24T07:36:43;2.65;;;2.10;;
22786;SDS011;63134;52.020;4.714;2023-08-24T07:39:31;3.15;;;2.40;;
22786;SDS011;63134;52.020;4.714;2023-08-24T07:42:20;3.20;;;2.00;;
22786;SDS011;63134;52.020;4.714;2023-08-24T07:45:09;3.42;;;2.25;;
22786;SDS011;63134;52.020;4.714;2023-08-24T07:47:54;3.15;;;2.22;;
22786;SDS011;63134;52.020;4.714;2023-08-24T07:50:46;2.40;;;2.17;;
22786;SDS011;63134;52.020;4.714;2023-08-24T07:53:32;2.53;;;2.33;;
22786;SDS011;63134;52.020;4.714;2023-08-24T07:56:20;2.05;;;1.90;;
22786;SDS011;63134;52.020;4.714;2023-08-24T07:59:07;3.10;;;2.20;;
22786;SDS011;63134;52.020;4.714;2023-08-24T08:01:53;2.35;;;2.15;;
22786;SDS011;63134;52.020;4.714;2023-08-24T08:04:39;2.78;;;2.50;;
22786;SDS011;63134;52.020;4.714;2023-08-24T08:07:25;2.75;;;2.10;;
22786;SDS011;63134;52.020;4.714;2023-08-24T08:10:11;2.80;;;2.30;;
22786;SDS011;63134;52.020;4.714;2023-08-24T08:12:56;2.25;;;2.05;;
22786;SDS011;63134;52.020;4.714;2023-08-24T08:15:46;2.35;;;1.80;;
22786;SDS011;63134;52.020;4.714;2023-08-24T08:18:33;2.95;;;2.67;;
22786;SDS011;63134;52.020;4.714;2023-08-24T08:21:29;2.90;;;2.60;;
22786;SDS011;63134;52.020;4.714;2023-08-24T08:24:15;4.90;;;3.55;;
22786;SDS011;63134;52.020;4.714;2023-08-24T08:27:10;3.80;;;2.63;;
22786;SDS011;63134;52.020;4.714;2023-08-24T08:29:56;4.13;;;3.20;;
22786;SDS011;63134;52.020;4.714;2023-08-24T08:32:43;6.88;;;4.28;;
22786;SDS011;63134;52.020;4.714;2023-08-24T08:35:31;5.90;;;4.20;;
22786;SDS011;63134;52.020;4.714;2023-08-24T08:38:21;3.78;;;3.38;;
22786;SDS011;63134;52.020;4.714;2023-08-24T08:41:12;5.80;;;3.40;;
22786;SDS011;63134;52.020;4.714;2023-08-24T08:44:04;7.60;;;4.72;;
22786;SDS011;63134;52.020;4.714;2023-08-24T08:46:53;5.13;;;4.38;;
22786;SDS011;63134;52.020;4.714;2023-08-24T08:49:39;5.82;;;4.25;;
22786;SDS011;63134;52.020;4.714;2023-08-24T08:52:26;5.95;;;3.92;;
22786;SDS011;63134;52.020;4.714;2023-08-24T08:55:21;3.35;;;2.45;;
22786;SDS011;63134;52.020;4.714;2023-08-24T08:58:08;4.72;;;3.42;;
22786;SDS011;63134;52.020;4.714;2023-08-24T09:00:54;3.95;;;3.38;;
22786;SDS011;63134;52.020;4.714;2023-08-24T09:03:41;4.13;;;3.33;;
22786;SDS011;63134;52.020;4.714;2023-08-24T09:06:31;6.75;;;3.83;;
22786;SDS011;63134;52.020;4.714;2023-08-24T09:09:19;6.47;;;3.50;;
22786;SDS011;63134;52.020;4.714;2023-08-24T09:12:05;2.85;;;2.15;;
22786;SDS011;63134;52.020;4.714;2023-08-24T09:14:56;3.22;;;2.50;;
22786;SDS011;63134;52.020;4.714;2023-08-24T09:17:42;3.88;;;3.08;;
22786;SDS011;63134;52.020;4.714;2023-08-24T09:20:29;3.22;;;2.60;;
22786;SDS011;63134;52.020;4.714;2023-08-24T09:23:18;4.85;;;3.25;;
22786;SDS011;63134;52.020;4.714;2023-08-24T09:26:06;3.38;;;2.85;;
22786;SDS011;63134;52.020;4.714;2023-08-24T09:28:52;3.72;;;2.10;;
22786;SDS011;63134;52.020;4.714;2023-08-24T09:31:47;2.03;;;1.70;;
22786;SDS011;63134;52.020;4.714;2023-08-24T09:34:36;2.40;;;2.20;;
22786;SDS011;63134;52.020;4.714;2023-08-24T09:37:22;3.17;;;2.17;;
22786;SDS011;63134;52.020;4.714;2023-08-24T09:40:08;3.22;;;1.90;;
22786;SDS011;63134;52.020;4.714;2023-08-24T09:42:54;2.03;;;1.83;;
22786;SDS011;63134;52.020;4.714;2023-08-24T09:45:49;1.80;;;1.70;;
22786;SDS011;63134;52.020;4.714;2023-08-24T09:48:35;1.70;;;1.42;;
22786;SDS011;63134;52.020;4.714;2023-08-24T09:51:22;1.67;;;1.33;;
22786;SDS011;63134;52.020;4.714;2023-08-24T09:54:08;1.52;;;1.42;;
22786;SDS011;63134;52.020;4.714;2023-08-24T09:56:55;1.30;;;1.20;;
22786;SDS011;63134;52.020;4.714;2023-08-24T09:59:43;1.40;;;1.30;;
22786;SDS011;63134;52.020;4.714;2023-08-24T10:02:31;1.98;;;1.60;;
22786;SDS011;63134;52.020;4.714;2023-08-24T10:05:21;1.48;;;1.38;;
22786;SDS011;63134;52.020;4.714;2023-08-24T10:08:39;4.50;;;2.78;;
22786;SDS011;63134;52.020;4.714;2023-08-24T10:11:33;4.40;;;3.90;;
22786;SDS011;63134;52.020;4.714;2023-08-24T10:14:32;6.03;;;4.30;;
22786;SDS011;63134;52.020;4.714;2023-08-24T10:17:17;5.38;;;3.53;;
22786;SDS011;63134;52.020;4.714;2023-08-24T10:20:04;5.35;;;4.28;;
22786;SDS011;63134;52.020;4.714;2023-08-24T10:22:53;4.75;;;4.07;;
22786;SDS011;63134;52.020;4.714;2023-08-24T10:28:36;4.75;;;2.88;;
22786;SDS011;63134;52.020;4.714;2023-08-24T10:31:22;4.03;;;3.42;;
22786;SDS011;63134;52.020;4.714;2023-08-24T10:34:09;2.47;;;2.28;;
22786;SDS011;63134;52.020;4.714;2023-08-24T10:37:10;4.00;;;3.63;;
22786;SDS011;63134;52.020;4.714;2023-08-24T10:39:57;5.95;;;4.68;;
22786;SDS011;63134;52.020;4.714;2023-08-24T10:42:43;4.72;;;4.20;;
22786;SDS011;63134;52.020;4.714;2023-08-24T10:51:31;5.00;;;4.15;;
22786;SDS011;63134;52.020;4.714;2023-08-24T10:54:29;4.28;;;3.65;;
22786;SDS011;63134;52.020;4.714;2023-08-24T10:57:17;4.47;;;4.07;;
22786;SDS011;63134;52.020;4.714;2023-08-24T11:00:12;6.07;;;4.25;;
22786;SDS011;63134;52.020;4.714;2023-08-24T11:02:58;6.55;;;5.07;;
22786;SDS011;63134;52.020;4.714;2023-08-24T11:05:51;3.45;;;2.60;;
22786;SDS011;63134;52.020;4.714;2023-08-24T11:08:46;3.40;;;3.10;;
22786;SDS011;63134;52.020;4.714;2023-08-24T11:11:33;3.00;;;2.80;;
22786;SDS011;63134;52.020;4.714;2023-08-24T11:14:19;3.80;;;2.67;;
22786;SDS011;63134;52.020;4.714;2023-08-24T11:17:20;2.28;;;1.98;;
22786;SDS011;63134;52.020;4.714;2023-08-24T11:20:06;2.20;;;1.90;;
22786;SDS011;63134;52.020;4.714;2023-08-24T11:22:54;2.20;;;1.95;;
22786;SDS011;63134;52.020;4.714;2023-08-24T11:25:44;2.17;;;1.77;;
22786;SDS011;63134;52.020;4.714;2023-08-24T11:28:31;2.10;;;1.90;;
22786;SDS011;63134;52.020;4.714;2023-08-24T11:31:16;1.85;;;1.70;;
22786;SDS011;63134;52.020;4.714;2023-08-24T11:34:02;1.65;;;1.42;;
22786;SDS011;63134;52.020;4.714;2023-08-24T11:36:49;2.80;;;2.50;;
22786;SDS011;63134;52.020;4.714;2023-08-24T11:39:35;4.95;;;2.15;;
22786;SDS011;63134;52.020;4.714;2023-08-24T11:42:20;2.03;;;1.80;;
22786;SDS011;63134;52.020;4.714;2023-08-24T11:45:10;3.25;;;2.40;;
22786;SDS011;63134;52.020;4.714;2023-08-24T11:48:01;5.22;;;2.70;;
22786;SDS011;63134;52.020;4.714;2023-08-24T11:50:50;3.70;;;3.05;;
22786;SDS011;63134;52.020;4.714;2023-08-24T11:53:45;3.30;;;2.25;;
22786;SDS011;63134;52.020;4.714;2023-08-24T11:56:32;6.07;;;4.50;;
22786;SDS011;63134;52.020;4.714;2023-08-24T11:59:17;4.75;;;4.25;;
22786;SDS011;63134;52.020;4.714;2023-08-24T12:02:03;6.38;;;4.25;;
22786;SDS011;63134;52.020;4.714;2023-08-24T12:04:53;7.30;;;4.78;;
22786;SDS011;63134;52.020;4.714;2023-08-24T12:07:39;5.95;;;3.90;;
22786;SDS011;63134;52.020;4.714;2023-08-24T12:10:24;6.20;;;4.53;;
22786;SDS011;63134;52.020;4.714;2023-08-24T12:13:12;7.20;;;4.75;;
22786;SDS011;63134;52.020;4.714;2023-08-24T12:15:58;4.72;;;3.90;;
22786;SDS011;63134;52.020;4.714;2023-08-24T12:18:55;9.50;;;4.95;;
22786;SDS011;63134;52.020;4.714;2023-08-24T12:21:44;7.03;;;5.15;;
22786;SDS011;63134;52.020;4.714;2023-08-24T12:24:30;5.47;;;4.13;;
22786;SDS011;63134;52.020;4.714;2023-08-24T12:27:17;5.80;;;4.18;;
22786;SDS011;63134;52.020;4.714;2023-08-24T12:30:10;5.88;;;4.28;;
22786;SDS011;63134;52.020;4.714;2023-08-24T12:32:56;6.10;;;3.00;;
22786;SDS011;63134;52.020;4.714;2023-08-24T12:35:42;6.57;;;3.85;;
22786;SDS011;63134;52.020;4.714;2023-08-24T12:38:30;7.43;;;4.90;;
22786;SDS011;63134;52.020;4.714;2023-08-24T12:41:15;6.85;;;4.05;;
22786;SDS011;63134;52.020;4.714;2023-08-24T12:44:04;4.95;;;3.88;;
22786;SDS011;63134;52.020;4.714;2023-08-24T12:46:50;8.30;;;3.42;;
22786;SDS011;63134;52.020;4.714;2023-08-24T12:49:36;3.08;;;2.60;;
22786;SDS011;63134;52.020;4.714;2023-08-24T12:52:22;6.15;;;4.50;;
22786;SDS011;63134;52.020;4.714;2023-08-24T12:55:09;5.80;;;3.75;;
22786;SDS011;63134;52.020;4.714;2023-08-24T12:57:55;3.28;;;2.83;;
22786;SDS011;63134;52.020;4.714;2023-08-24T13:00:44;7.15;;;3.10;;
22786;SDS011;63134;52.020;4.714;2023-08-24T13:03:30;6.10;;;3.85;;
22786;SDS011;63134;52.020;4.714;2023-08-24T13:06:15;6.20;;;2.75;;
22786;SDS011;63134;52.020;4.714;2023-08-24T13:09:04;4.38;;;2.95;;
22786;SDS011;63134;52.020;4.714;2023-08-24T13:11:51;3.88;;;3.13;;
22786;SDS011;63134;52.020;4.714;2023-08-24T13:14:39;3.35;;;2.28;;
22786;SDS011;63134;52.020;4.714;2023-08-24T13:17:25;2.95;;;2.40;;
22786;SDS011;63134;52.020;4.714;2023-08-24T13:20:14;4.30;;;2.35;;
22786;SDS011;63134;52.020;4.714;2023-08-24T13:23:00;3.17;;;1.50;;
22786;SDS011;63134;52.020;4.714;2023-08-24T13:25:48;1.70;;;1.30;;
22786;SDS011;63134;52.020;4.714;2023-08-24T13:28:33;2.33;;;1.95;;
22786;SDS011;63134;52.020;4.714;2023-08-24T13:31:19;3.25;;;2.20;;
22786;SDS011;63134;52.020;4.714;2023-08-24T13:34:07;2.80;;;2.08;;
22786;SDS011;63134;52.020;4.714;2023-08-24T13:36:53;8.98;;;5.72;;
22786;SDS011;63134;52.020;4.714;2023-08-24T13:39:39;11.23;;;6.70;;
22786;SDS011;63134;52.020;4.714;2023-08-24T13:42:26;8.90;;;5.60;;
22786;SDS011;63134;52.020;4.714;2023-08-24T13:45:11;8.93;;;6.57;;
22786;SDS011;63134;52.020;4.714;2023-08-24T13:47:57;6.53;;;5.68;;
22786;SDS011;63134;52.020;4.714;2023-08-24T13:50:50;5.35;;;4.00;;
22786;SDS011;63134;52.020;4.714;2023-08-24T13:53:41;7.18;;;4.32;;
22786;SDS011;63134;52.020;4.714;2023-08-24T13:56:29;7.57;;;5.97;;
22786;SDS011;63134;52.020;4.714;2023-08-24T13:59:16;7.03;;;4.28;;
22786;SDS011;63134;52.020;4.714;2023-08-24T14:02:01;8.30;;;6.38;;
22786;SDS011;63134;52.020;4.714;2023-08-24T14:04:52;9.27;;;7.15;;
22786;SDS011;63134;52.020;4.714;2023-08-24T14:07:39;7.13;;;5.50;;
22786;SDS011;63134;52.020;4.714;2023-08-24T14:10:30;5.32;;;4.22;;
22786;SDS011;63134;52.020;4.714;2023-08-24T14:13:16;7.65;;;4.88;;
22786;SDS011;63134;52.020;4.714;2023-08-24T14:16:01;7.00;;;4.78;;
22786;SDS011;63134;52.020;4.714;2023-08-24T14:18:47;3.83;;;3.35;;
22786;SDS011;63134;52.020;4.714;2023-08-24T14:21:33;7.32;;;6.15;;
22786;SDS011;63134;52.020;4.714;2023-08-24T14:24:29;9.90;;;7.25;;
22786;SDS011;63134;52.020;4.714;2023-08-24T14:27:15;8.77;;;6.32;;
22786;SDS011;63134;52.020;4.714;2023-08-24T14:30:06;9.10;;;6.47;;
22786;SDS011;63134;52.020;4.714;2023-08-24T14:32:53;10.30;;;7.03;;
22786;SDS011;63134;52.020;4.714;2023-08-24T14:35:38;10.10;;;6.93;;
22786;SDS011;63134;52.020;4.714;2023-08-24T14:38:34;10.73;;;8.00;;
22786;SDS011;63134;52.020;4.714;2023-08-24T14:41:23;11.45;;;7.53;;
22786;SDS011;63134;52.020;4.714;2023-08-24T14:44:09;10.00;;;7.45;;
22786;SDS011;63134;52.020;4.714;2023-08-24T14:46:54;8.32;;;5.28;;
22786;SDS011;63134;52.020;4.714;2023-08-24T14:49:40;6.38;;;5.38;;
22786;SDS011;63134;52.020;4.714;2023-08-24T14:52:28;9.13;;;5.70;;
22786;SDS011;63134;52.020;4.714;2023-08-24T14:55:13;7.68;;;5.55;;
22786;SDS011;63134;52.020;4.714;2023-08-24T14:57:59;6.72;;;5.40;;
22786;SDS011;63134;52.020;4.714;2023-08-24T15:00:45;8.63;;;6.50;;
22786;SDS011;63134;52.020;4.714;2023-08-24T15:03:31;6.72;;;5.68;;
22786;SDS011;63134;52.020;4.714;2023-08-24T15:06:17;8.63;;;5.50;;
22786;SDS011;63134;52.020;4.714;2023-08-24T15:09:02;5.30;;;4.80;;
22786;SDS011;63134;52.020;4.714;2023-08-24T15:11:49;9.18;;;6.63;;
22786;SDS011;63134;52.020;4.714;2023-08-24T15:14:37;6.97;;;5.65;;
22786;SDS011;63134;52.020;4.714;2023-08-24T15:17:40;8.27;;;4.93;;
22786;SDS011;63134;52.020;4.714;2023-08-24T15:20:26;7.68;;;4.75;;
22786;SDS011;63134;52.020;4.714;2023-08-24T15:26:10;14.27;;;5.18;;
22786;SDS011;63134;52.020;4.714;2023-08-24T15:29:12;6.40;;;3.90;;
22786;SDS011;63134;52.020;4.714;2023-08-24T15:32:03;6.25;;;3.75;;
22786;SDS011;63134;52.020;4.714;2023-08-24T15:34:51;6.78;;;3.60;;
22786;SDS011;63134;52.020;4.714;2023-08-24T15:37:41;7.03;;;3.85;;
22786;SDS011;63134;52.020;4.714;2023-08-24T15:40:29;6.47;;;3.95;;
22786;SDS011;63134;52.020;4.714;2023-08-24T15:43:18;8.00;;;3.28;;
22786;SDS011;63134;52.020;4.714;2023-08-24T15:46:03;7.57;;;3.60;;
22786;SDS011;63134;52.020;4.714;2023-08-24T15:48:49;4.63;;;3.15;;
22786;SDS011;63134;52.020;4.714;2023-08-24T15:51:35;4.53;;;3.20;;
22786;SDS011;63134;52.020;4.714;2023-08-24T15:54:24;8.23;;;3.33;;
22786;SDS011;63134;52.020;4.714;2023-08-24T15:57:11;6.40;;;3.30;;
22786;SDS011;63134;52.020;4.714;2023-08-24T15:59:57;6.57;;;3.33;;
22786;SDS011;63134;52.020;4.714;2023-08-24T16:02:44;5.75;;;3.60;;
22786;SDS011;63134;52.020;4.714;2023-08-24T16:05:32;6.35;;;3.10;;
22786;SDS011;63134;52.020;4.714;2023-08-24T16:08:19;3.05;;;2.58;;
22786;SDS011;63134;52.020;4.714;2023-08-24T16:11:04;5.65;;;3.03;;
22786;SDS011;63134;52.020;4.714;2023-08-24T16:13:50;4.45;;;2.60;;
22786;SDS011;63134;52.020;4.714;2023-08-24T16:16:36;7.00;;;3.13;;
22786;SDS011;63134;52.020;4.714;2023-08-24T16:19:22;5.63;;;3.35;;
22786;SDS011;63134;52.020;4.714;2023-08-24T16:22:07;8.38;;;3.30;;
22786;SDS011;63134;52.020;4.714;2023-08-24T16:24:53;4.47;;;2.80;;
22786;SDS011;63134;52.020;4.714;2023-08-24T16:27:38;4.30;;;2.72;;
22786;SDS011;63134;52.020;4.714;2023-08-24T16:30:24;4.55;;;2.95;;
22786;SDS011;63134;52.020;4.714;2023-08-24T16:33:10;5.35;;;3.00;;
22786;SDS011;63134;52.020;4.714;2023-08-24T16:35:56;6.03;;;2.65;;
22786;SDS011;63134;52.020;4.714;2023-08-24T16:38:43;7.10;;;2.90;;
22786;SDS011;63134;52.020;4.714;2023-08-24T16:41:30;4.82;;;3.00;;
22786;SDS011;63134;52.020;4.714;2023-08-24T16:44:17;7.38;;;3.00;;
22786;SDS011;63134;52.020;4.714;2023-08-24T16:47:02;7.28;;;3.13;;
22786;SDS011;63134;52.020;4.714;2023-08-24T16:49:48;8.10;;;3.83;;
22786;SDS011;63134;52.020;4.714;2023-08-24T16:52:33;9.75;;;3.50;;
22786;SDS011;63134;52.020;4.714;2023-08-24T16:55:19;6.28;;;3.80;;
22786;SDS011;63134;52.020;4.714;2023-08-24T16:58:04;5.43;;;3.63;;
22786;SDS011;63134;52.020;4.714;2023-08-24T17:00:50;5.80;;;3.38;;
22786;SDS011;63134;52.020;4.714;2023-08-24T17:03:36;6.45;;;3.13;;
22786;SDS011;63134;52.020;4.714;2023-08-24T17:06:21;4.20;;;3.33;;
22786;SDS011;63134;52.020;4.714;2023-08-24T17:09:07;3.38;;;2.45;;